createdAt,value
2018-08-10T00:01:47.847Z,83.70
2018-08-10T00:04:20.793Z,83.60
2018-08-10T00:06:53.743Z,83.90
2018-08-10T00:09:27.388Z,83.90
2018-08-10T00:12:00.268Z,83.80
2018-08-10T00:14:34.796Z,83.90
2018-08-10T00:17:07.813Z,84.60
2018-08-10T00:19:40.750Z,84.10
2018-08-10T00:22:13.714Z,83.50
2018-08-10T00:24:46.728Z,81.90
2018-08-10T00:27:20.586Z,80.00
2018-08-10T00:29:53.630Z,79.80
2018-08-10T00:32:26.922Z,80.00
2018-08-10T00:34:59.852Z,79.90
2018-08-10T00:37:32.941Z,80.00
2018-08-10T00:40:06.560Z,79.90
2018-08-10T00:42:39.598Z,80.10
2018-08-10T00:45:14.069Z,80.00
2018-08-10T00:47:47.410Z,80.10
2018-08-10T00:50:20.661Z,80.30
2018-08-10T00:52:54.234Z,80.30
2018-08-10T00:55:27.150Z,80.10
2018-08-10T00:58:01.358Z,80.30
2018-08-10T01:00:34.443Z,80.10
2018-08-10T01:03:07.957Z,80.30
2018-08-10T01:05:41.021Z,79.90
2018-08-10T01:13:55.586Z,80.10
2018-08-10T01:16:28.986Z,79.20
2018-08-10T01:19:01.977Z,79.70
2018-08-10T01:21:35.470Z,80.70
2018-08-10T01:24:08.525Z,79.90
2018-08-10T01:26:41.530Z,79.80
2018-08-10T01:29:15.085Z,79.60
2018-08-10T01:31:48.063Z,78.90
2018-08-10T01:34:21.203Z,78.90
2018-08-10T01:36:54.210Z,78.30
2018-08-10T01:39:27.183Z,78.40
2018-08-10T01:42:00.802Z,78.90
2018-08-10T01:44:33.795Z,79.10
2018-08-10T01:47:07.807Z,79.10
2018-08-10T01:49:40.818Z,79.30
2018-08-10T01:52:13.753Z,79.20
2018-08-10T01:54:46.721Z,79.50
2018-08-10T01:57:19.753Z,79.60
2018-08-10T01:59:53.468Z,79.80
2018-08-10T02:02:26.506Z,80.10
2018-08-10T02:04:59.485Z,80.00
2018-08-10T02:07:32.808Z,80.00
2018-08-10T02:10:05.738Z,80.00
2018-08-10T02:12:39.393Z,79.90
2018-08-10T02:15:14.346Z,79.60
2018-08-10T02:17:47.970Z,79.40
2018-08-10T02:20:22.390Z,79.20
2018-08-10T02:22:55.455Z,79.20
2018-08-10T02:25:28.749Z,79.50
2018-08-10T02:28:01.620Z,79.60
2018-08-10T02:30:35.853Z,79.80
2018-08-10T02:33:08.903Z,79.80
2018-08-10T02:35:41.886Z,79.80
2018-08-10T02:38:15.151Z,79.90
2018-08-10T02:40:48.190Z,80.00
2018-08-10T02:43:21.557Z,80.00
2018-08-10T02:45:54.565Z,80.00
2018-08-10T02:48:27.692Z,79.80
2018-08-10T02:51:00.567Z,79.80
2018-08-10T02:53:33.607Z,79.80
2018-08-10T02:56:07.684Z,79.70
2018-08-10T02:58:40.762Z,79.70
2018-08-10T03:01:14.875Z,79.80
2018-08-10T03:03:47.942Z,79.90
2018-08-10T03:06:20.895Z,80.00
2018-08-10T03:08:53.836Z,80.10
2018-08-10T03:11:26.882Z,80.00
2018-08-10T03:14:02.021Z,80.00
2018-08-10T03:16:35.489Z,79.70
2018-08-10T03:19:08.532Z,79.70
2018-08-10T03:21:41.472Z,79.60
2018-08-10T03:24:15.321Z,79.50
2018-08-10T03:26:48.816Z,79.50
2018-08-10T03:29:21.917Z,79.50
2018-08-10T03:31:55.030Z,79.10
2018-08-10T03:34:28.241Z,78.90
2018-08-10T03:37:01.184Z,78.90
2018-08-10T03:39:34.615Z,78.70
2018-08-10T03:42:07.602Z,78.40
2018-08-10T03:44:42.471Z,78.40
2018-08-10T03:47:15.547Z,78.20
2018-08-10T03:49:48.515Z,78.30
2018-08-10T03:52:21.512Z,78.30
2018-08-10T03:54:55.236Z,78.90
2018-08-10T03:57:29.401Z,78.10
2018-08-10T04:00:02.325Z,77.90
2018-08-10T04:02:36.127Z,77.90
2018-08-10T04:05:11.304Z,78.00
2018-08-10T04:07:45.301Z,77.80
2018-08-10T04:10:19.107Z,78.00
2018-08-10T04:12:52.104Z,78.60
2018-08-10T04:15:25.091Z,77.90
2018-08-10T04:17:58.115Z,77.90
2018-08-10T04:20:31.098Z,77.90
2018-08-10T04:23:04.855Z,77.90
2018-08-10T04:25:37.858Z,78.00
2018-08-10T04:28:11.618Z,78.10
2018-08-10T04:30:44.623Z,78.10
2018-08-10T04:33:17.742Z,78.30
2018-08-10T04:35:50.686Z,78.20
2018-08-10T04:38:23.707Z,77.90
2018-08-10T04:40:58.136Z,77.80
2018-08-10T04:43:31.126Z,77.80
2018-08-10T04:46:04.227Z,77.80
2018-08-10T04:48:37.303Z,77.80
2018-08-10T04:51:10.317Z,77.60
2018-08-10T04:53:43.695Z,77.60
2018-08-10T04:56:17.616Z,77.50
2018-08-10T04:58:50.630Z,77.50
2018-08-10T05:01:23.595Z,77.50
2018-08-10T05:03:56.565Z,77.60
2018-08-10T05:06:29.979Z,77.60
2018-08-10T05:09:03.704Z,77.80
2018-08-10T05:11:37.175Z,77.70
2018-08-10T05:14:11.239Z,77.40
2018-08-10T05:16:44.467Z,77.50
2018-08-10T05:19:17.429Z,77.40
2018-08-10T05:21:50.461Z,77.50
2018-08-10T05:24:23.902Z,77.10
2018-08-10T05:26:56.848Z,77.00
2018-08-10T05:29:29.761Z,76.80
2018-08-10T05:32:02.783Z,76.60
2018-08-10T05:34:35.670Z,76.40
2018-08-10T05:37:09.236Z,76.60
2018-08-10T05:39:42.191Z,76.70
2018-08-10T05:42:15.539Z,76.30
2018-08-10T05:44:49.142Z,76.20
2018-08-10T05:47:22.166Z,76.30
2018-08-10T05:49:56.140Z,76.20
2018-08-10T05:52:29.135Z,76.30
2018-08-10T05:55:02.654Z,76.00
2018-08-10T05:57:35.681Z,75.80
2018-08-10T06:00:09.375Z,75.50
2018-08-10T06:02:43.510Z,74.80
2018-08-10T06:05:16.434Z,74.80
2018-08-10T06:07:50.787Z,75.10
2018-08-10T06:10:23.738Z,75.00
2018-08-10T06:12:56.934Z,75.10
2018-08-10T06:15:31.166Z,75.30
2018-08-10T06:18:04.264Z,75.40
2018-08-10T06:20:37.714Z,75.40
2018-08-10T06:23:10.831Z,75.60
2018-08-10T06:25:43.765Z,75.20
2018-08-10T06:28:16.807Z,75.20
2018-08-10T06:30:49.868Z,75.10
2018-08-10T06:33:23.459Z,74.60
2018-08-10T06:35:56.488Z,74.70
2018-08-10T06:38:31.068Z,75.00
2018-08-10T06:41:04.950Z,74.60
2018-08-10T06:43:38.012Z,74.40
2018-08-10T06:46:11.042Z,73.50
2018-08-10T06:48:44.065Z,73.90
2018-08-10T06:51:17.676Z,73.90
2018-08-10T06:53:51.737Z,74.00
2018-08-10T06:56:24.780Z,74.20
2018-08-10T06:58:57.765Z,74.10
2018-08-10T07:01:30.839Z,74.10
2018-08-10T07:04:04.479Z,74.20
2018-08-10T07:06:37.570Z,74.10
2018-08-10T07:09:14.331Z,74.10
2018-08-10T07:11:47.462Z,74.00
2018-08-10T07:14:20.492Z,73.40
2018-08-10T07:16:53.882Z,73.60
2018-08-10T07:19:27.062Z,73.80
2018-08-10T07:22:01.398Z,74.10
2018-08-10T07:24:34.442Z,74.00
2018-08-10T07:27:08.076Z,74.20
2018-08-10T07:29:41.171Z,74.30
2018-08-10T07:32:14.867Z,73.60
2018-08-10T07:34:49.026Z,73.10
2018-08-10T07:37:21.913Z,73.40
2018-08-10T07:39:54.904Z,73.80
2018-08-10T07:42:27.941Z,73.80
2018-08-10T07:45:00.872Z,73.30
2018-08-10T07:47:34.194Z,73.40
2018-08-10T07:50:07.727Z,73.70
2018-08-10T07:52:40.822Z,73.80
2018-08-10T07:55:15.650Z,73.40
2018-08-10T07:57:48.665Z,72.90
2018-08-10T08:00:22.975Z,72.40
2018-08-10T08:02:55.921Z,72.10
2018-08-10T08:05:29.334Z,72.50
2018-08-10T08:08:02.285Z,72.80
2018-08-10T08:10:35.834Z,73.10
2018-08-10T08:13:08.937Z,73.10
2018-08-10T08:15:42.002Z,73.10
2018-08-10T08:18:18.058Z,73.20
2018-08-10T08:21:00.067Z,73.20
2018-08-10T08:23:33.777Z,73.20
2018-08-10T08:26:06.938Z,73.10
2018-08-10T08:28:40.665Z,73.40
2018-08-10T08:31:14.251Z,73.40
2018-08-10T08:33:56.206Z,73.40
2018-08-10T08:36:29.259Z,73.60
2018-08-10T08:41:09.860Z,74.20
2018-08-10T08:46:02.782Z,74.70
2018-08-10T08:49:07.041Z,74.80
2018-08-10T08:51:40.041Z,74.80
2018-08-10T08:56:27.111Z,74.90
2018-08-10T08:58:59.978Z,75.80
2018-08-10T09:01:33.734Z,75.00
2018-08-10T09:04:41.690Z,75.70
2018-08-10T09:07:14.857Z,74.80
2018-08-10T09:09:48.471Z,74.80
2018-08-10T09:12:21.530Z,74.90
2018-08-10T09:15:00.982Z,74.80
2018-08-10T09:17:34.092Z,74.90
2018-08-10T09:20:08.226Z,74.80
2018-08-10T09:22:42.098Z,74.90
2018-08-10T09:25:20.919Z,75.10
2018-08-10T09:27:54.060Z,75.20
2018-08-10T09:30:27.760Z,75.30
2018-08-10T09:33:01.825Z,75.20
2018-08-10T09:35:36.169Z,75.10
2018-08-10T09:38:09.230Z,75.00
2018-08-10T09:40:44.099Z,75.10
2018-08-10T09:43:17.176Z,75.00
2018-08-10T09:45:50.292Z,75.00
2018-08-10T09:48:24.137Z,74.90
2018-08-10T09:50:57.015Z,74.80
2018-08-10T09:53:30.597Z,74.60
2018-08-10T09:56:03.586Z,74.80
2018-08-10T09:58:36.544Z,74.50
2018-08-10T10:01:13.169Z,74.50
2018-08-10T10:03:46.339Z,74.60
2018-08-10T10:06:19.648Z,74.50
2018-08-10T10:08:52.695Z,74.50
2018-08-10T10:11:26.876Z,74.50
2018-08-10T10:13:59.840Z,74.50
2018-08-10T10:16:32.822Z,74.60
2018-08-10T10:19:05.843Z,74.60
2018-08-10T10:21:38.816Z,74.60
2018-08-10T10:24:12.096Z,74.60
2018-08-10T10:26:45.211Z,74.60
2018-08-10T10:29:18.184Z,74.70
2018-08-10T10:31:51.176Z,74.80
2018-08-10T10:34:24.207Z,74.80
2018-08-10T10:36:58.168Z,74.90
2018-08-10T10:39:31.218Z,74.90
2018-08-10T10:42:04.247Z,75.00
2018-08-10T10:44:37.251Z,75.00
2018-08-10T10:47:10.248Z,75.10
2018-08-10T10:49:43.312Z,75.10
2018-08-10T10:52:16.407Z,75.30
2018-08-10T10:54:49.838Z,75.30
2018-08-10T10:57:22.812Z,76.30
2018-08-10T10:59:56.741Z,75.50
2018-08-10T11:02:29.632Z,75.60
2018-08-10T11:05:02.589Z,75.70
2018-08-10T11:07:37.742Z,75.70
2018-08-10T11:10:13.831Z,75.80
2018-08-10T11:12:46.740Z,75.80
2018-08-10T11:15:19.760Z,75.60
2018-08-10T11:17:52.749Z,75.30
2018-08-10T11:20:26.197Z,75.10
2018-08-10T11:22:59.258Z,74.90
2018-08-10T11:25:33.424Z,74.50
2018-08-10T11:28:06.805Z,73.50
2018-08-10T11:30:40.722Z,73.60
2018-08-10T11:38:16.040Z,73.60
2018-08-10T11:40:50.220Z,73.40
2018-08-10T11:43:25.597Z,73.40
2018-08-10T11:45:59.321Z,73.40
2018-08-10T11:48:32.955Z,72.80
2018-08-10T11:51:06.489Z,72.90
2018-08-10T11:53:40.198Z,73.00
2018-08-10T11:56:14.710Z,72.60
2018-08-10T11:58:48.950Z,72.40
2018-08-10T12:01:22.685Z,73.40
2018-08-10T12:03:56.212Z,72.70
2018-08-10T12:06:29.609Z,72.70
2018-08-10T12:09:03.146Z,72.90
2018-08-10T12:11:36.667Z,72.70
2018-08-10T12:14:10.267Z,72.80
2018-08-10T12:16:44.242Z,72.60
2018-08-10T12:19:18.257Z,72.80
2018-08-10T12:21:53.482Z,72.60
2018-08-10T12:24:27.521Z,72.90
2018-08-10T12:27:01.485Z,72.60
2018-08-10T12:29:36.719Z,72.00
2018-08-10T12:32:11.423Z,72.20
2018-08-10T12:34:46.808Z,72.90
2018-08-10T12:37:20.378Z,72.20
2018-08-10T12:39:54.958Z,72.40
2018-08-10T12:42:29.236Z,72.60
2018-08-10T12:45:04.621Z,72.80
2018-08-10T12:47:39.167Z,72.80
2018-08-10T12:50:15.120Z,72.90
2018-08-10T12:52:49.306Z,72.80
2018-08-10T12:55:24.512Z,73.00
2018-08-10T12:57:58.903Z,73.10
2018-08-10T13:00:32.799Z,72.90
2018-08-10T13:03:07.392Z,72.90
2018-08-10T13:05:41.072Z,72.60
2018-08-10T13:08:15.558Z,72.60
2018-08-10T13:10:49.018Z,72.30
2018-08-10T13:13:23.334Z,72.30
2018-08-10T13:15:56.917Z,72.00
2018-08-10T13:18:30.427Z,72.10
2018-08-10T13:21:04.473Z,72.30
2018-08-10T13:23:39.855Z,72.60
2018-08-10T13:26:13.831Z,72.50
2018-08-10T13:28:47.160Z,72.80
2018-08-10T13:31:21.019Z,72.80
2018-08-10T13:33:54.829Z,72.80
2018-08-10T13:36:28.232Z,72.70
2018-08-10T13:39:01.441Z,72.70
2018-08-10T13:41:34.597Z,72.70
2018-08-10T13:44:08.089Z,72.50
2018-08-10T13:46:41.037Z,72.60
2018-08-10T13:49:14.871Z,72.70
2018-08-10T13:51:47.894Z,72.80
2018-08-10T13:54:22.019Z,73.50
2018-08-10T13:56:55.539Z,72.90
2018-08-10T13:59:28.524Z,73.50
2018-08-10T14:02:01.623Z,73.10
2018-08-10T14:04:34.916Z,73.20
2018-08-10T14:07:08.756Z,73.30
2018-08-10T14:09:42.254Z,73.40
2018-08-10T14:12:15.382Z,73.50
2018-08-10T14:14:49.073Z,74.30
2018-08-10T14:17:22.017Z,73.60
2018-08-10T14:19:55.027Z,73.60
2018-08-10T14:22:28.078Z,73.70
2018-08-10T14:25:02.188Z,73.90
2018-08-10T14:27:35.598Z,74.00
2018-08-10T14:30:09.868Z,74.20
2018-08-10T14:32:43.130Z,74.20
2018-08-10T14:35:16.513Z,74.20
2018-08-10T14:37:49.465Z,74.40
2018-08-10T14:40:22.843Z,74.60
2018-08-10T14:42:55.841Z,74.50
2018-08-10T14:45:29.041Z,74.50
2018-08-10T14:48:02.405Z,75.20
2018-08-10T14:50:35.550Z,75.10
2018-08-10T14:53:08.631Z,75.20
2018-08-10T14:55:41.700Z,75.20
2018-08-10T14:58:15.337Z,75.20
2018-08-10T15:00:49.478Z,75.50
2018-08-10T15:03:22.485Z,75.80
2018-08-10T15:05:55.577Z,75.80
2018-08-10T15:08:28.607Z,75.70
2018-08-10T15:11:02.169Z,76.00
2018-08-10T15:13:35.269Z,75.80
2018-08-10T15:16:08.365Z,75.80
2018-08-10T15:18:41.344Z,75.90
2018-08-10T15:21:14.925Z,75.80
2018-08-10T15:23:49.385Z,75.80
2018-08-10T15:26:24.237Z,75.90
2018-08-10T15:28:57.450Z,76.00
2018-08-10T15:31:30.482Z,76.30
2018-08-10T15:34:03.543Z,76.70
2018-08-10T15:36:36.569Z,76.50
2018-08-10T15:39:13.190Z,76.50
2018-08-10T15:41:47.825Z,76.40
2018-08-10T15:44:20.799Z,76.50
2018-08-10T15:46:53.707Z,76.60
2018-08-10T15:49:27.412Z,76.80
2018-08-10T15:52:00.450Z,76.80
2018-08-10T15:54:34.197Z,76.80
2018-08-10T15:57:07.217Z,76.90
2018-08-10T15:59:40.066Z,76.90
2018-08-10T16:02:13.149Z,76.90
2018-08-10T16:04:47.161Z,77.10
2018-08-10T16:07:21.563Z,77.20
2018-08-10T16:09:54.615Z,77.10
2018-08-10T16:12:27.565Z,77.20
2018-08-10T16:15:00.902Z,77.30
2018-08-10T16:17:33.836Z,77.40
2018-08-10T16:20:07.378Z,77.50
2018-08-10T16:22:40.694Z,77.50
2018-08-10T16:31:21.796Z,77.80
2018-08-10T16:33:55.250Z,77.80
2018-08-10T16:36:28.207Z,77.80
2018-08-10T16:39:01.134Z,77.90
2018-08-10T16:41:34.150Z,78.00
2018-08-10T16:44:07.259Z,78.00
2018-08-10T16:46:40.321Z,77.90
2018-08-10T16:49:13.348Z,77.80
2018-08-10T16:51:46.390Z,77.80
2018-08-10T16:54:19.298Z,77.80
2018-08-10T16:56:52.453Z,77.90
2018-08-10T16:59:25.838Z,77.80
2018-08-10T17:01:58.883Z,78.00
2018-08-10T17:04:32.647Z,78.60
2018-08-10T17:07:05.578Z,78.00
2018-08-10T17:09:38.604Z,78.20
2018-08-10T17:12:11.878Z,78.30
2018-08-10T17:14:44.790Z,79.30
2018-08-10T17:17:19.307Z,79.00
2018-08-10T17:19:52.250Z,79.20
2018-08-10T17:22:25.159Z,79.60
2018-08-10T17:24:58.140Z,80.00
2018-08-10T17:27:31.147Z,80.30
2018-08-10T17:30:05.153Z,80.40
2018-08-10T17:32:38.107Z,80.00
2018-08-10T17:35:13.006Z,79.70
2018-08-10T17:37:47.281Z,79.70
2018-08-10T17:40:20.176Z,79.80
2018-08-10T17:42:53.593Z,80.00
2018-08-10T17:45:26.535Z,80.10
2018-08-10T17:47:59.743Z,80.20
2018-08-10T17:50:32.822Z,80.20
2018-08-10T17:53:05.834Z,80.20
2018-08-10T17:55:38.812Z,80.30
2018-08-10T17:58:11.771Z,80.30
2018-08-10T18:00:45.221Z,80.60
2018-08-10T18:03:18.298Z,80.90
2018-08-10T18:05:51.198Z,81.10
2018-08-10T18:08:24.142Z,81.10
2018-08-10T18:10:57.019Z,81.10
2018-08-10T18:13:30.478Z,81.20
2018-08-10T18:16:03.459Z,81.50
2018-08-10T18:18:36.498Z,81.40
2018-08-10T18:21:09.436Z,81.10
2018-08-10T18:23:42.406Z,81.10
2018-08-10T18:26:16.221Z,81.10
2018-08-10T18:28:49.878Z,81.10
2018-08-10T18:31:24.180Z,81.20
2018-08-10T18:33:57.201Z,81.40
2018-08-10T18:36:30.231Z,81.40
2018-08-10T18:39:03.142Z,81.80
2018-08-10T18:41:36.060Z,81.80
2018-08-10T18:44:10.929Z,81.90
2018-08-10T18:46:43.982Z,82.10
2018-08-10T18:49:17.019Z,82.10
2018-08-10T18:51:50.037Z,81.90
2018-08-10T18:54:23.028Z,82.10
2018-08-10T18:56:56.396Z,82.20
2018-08-10T18:59:30.666Z,82.90
2018-08-10T19:02:04.130Z,82.40
2018-08-10T19:04:37.109Z,83.00
2018-08-10T19:07:10.102Z,83.00
2018-08-10T19:09:43.174Z,83.00
2018-08-10T19:12:16.328Z,83.50
2018-08-10T19:14:51.457Z,83.40
2018-08-10T19:17:25.593Z,83.30
2018-08-10T19:19:58.502Z,83.20
2018-08-10T19:22:31.538Z,83.30
2018-08-10T19:25:04.564Z,83.50
2018-08-10T19:27:38.878Z,83.70
2018-08-10T19:30:17.387Z,83.50
2018-08-10T19:32:50.809Z,83.60
2018-08-10T19:35:23.805Z,83.50
2018-08-10T19:37:57.622Z,83.70
2018-08-10T19:40:30.727Z,83.90
2018-08-10T19:43:03.682Z,83.90
2018-08-10T19:45:36.766Z,84.20
2018-08-10T19:48:09.714Z,84.10
2018-08-10T19:50:42.758Z,85.10
2018-08-10T19:53:15.789Z,84.40
2018-08-10T19:55:50.102Z,84.60
2018-08-10T19:58:23.611Z,84.90
2018-08-10T20:00:56.594Z,84.60
2018-08-10T20:03:29.573Z,84.50
2018-08-10T20:06:03.412Z,84.50
2018-08-10T20:08:36.429Z,84.30
2018-08-10T20:11:10.677Z,84.30
2018-08-10T20:13:43.672Z,84.50
2018-08-10T20:16:18.056Z,84.50
2018-08-10T20:18:51.190Z,84.60
2018-08-10T20:21:24.087Z,84.70
2018-08-10T20:23:57.553Z,84.50
2018-08-10T20:26:31.496Z,84.40
2018-08-10T20:29:04.678Z,84.20
2018-08-10T20:31:37.608Z,84.40
2018-08-10T20:34:10.835Z,84.30
2018-08-10T20:36:43.824Z,84.30
2018-08-10T20:39:17.869Z,84.40
2018-08-10T20:41:52.386Z,84.30
2018-08-10T20:44:25.382Z,84.60
2018-08-10T20:46:58.316Z,84.40
2018-08-10T20:49:31.431Z,84.70
2018-08-10T20:52:04.577Z,84.70
2018-08-10T20:54:37.758Z,84.60
2018-08-10T20:57:10.622Z,84.80
2018-08-10T20:59:43.611Z,84.70
2018-08-10T21:02:16.622Z,84.50
2018-08-10T21:04:49.513Z,84.40
2018-08-10T21:07:23.810Z,84.20
2018-08-10T21:09:56.832Z,84.30
2018-08-10T21:12:33.068Z,84.40
2018-08-10T21:15:06.187Z,84.10
2018-08-10T21:17:39.290Z,84.00
2018-08-10T21:20:14.236Z,84.10
2018-08-10T21:22:47.303Z,84.20
2018-08-10T21:25:20.870Z,84.20
2018-08-10T21:27:53.813Z,84.50
2018-08-10T21:30:26.783Z,84.50
2018-08-10T21:32:59.810Z,84.20
2018-08-10T21:35:32.711Z,84.10
2018-08-10T21:38:06.133Z,84.10
2018-08-10T21:40:39.194Z,84.60
2018-08-10T21:43:12.206Z,84.60
2018-08-10T21:45:45.252Z,84.40
2018-08-10T21:48:18.350Z,84.30
2018-08-10T21:50:53.087Z,84.40
2018-08-10T21:53:26.170Z,84.40
2018-08-10T21:56:00.325Z,84.40
2018-08-10T21:58:33.397Z,84.30
2018-08-10T22:01:06.421Z,84.50
2018-08-10T22:03:39.381Z,84.50
2018-08-10T22:06:12.366Z,84.20
2018-08-10T22:08:45.256Z,84.40
2018-08-10T22:11:18.362Z,84.20
2018-08-10T22:13:55.390Z,84.30
2018-08-10T22:16:32.602Z,84.30
2018-08-10T22:19:09.629Z,84.20
2018-08-10T22:21:43.196Z,84.20
2018-08-10T22:24:16.677Z,84.10
2018-08-10T22:26:50.663Z,83.90
2018-08-10T22:29:23.667Z,83.80
2018-08-10T22:31:56.694Z,83.90
2018-08-10T22:34:30.274Z,83.70
2018-08-10T22:37:03.965Z,83.40
2018-08-10T22:39:38.217Z,83.20
2018-08-10T22:42:11.169Z,82.90
2018-08-10T22:44:44.144Z,82.70
2018-08-10T22:47:17.101Z,82.90
2018-08-10T22:49:50.225Z,82.80
2018-08-10T22:52:25.369Z,82.60
2018-08-10T22:54:58.321Z,82.50
2018-08-10T22:57:31.374Z,82.60
2018-08-10T23:00:04.394Z,82.40
2018-08-10T23:02:38.516Z,82.50
2018-08-10T23:05:12.107Z,82.60
2018-08-10T23:07:45.055Z,82.40
2018-08-10T23:10:18.263Z,82.70
2018-08-10T23:12:51.250Z,82.70
2018-08-10T23:15:24.925Z,82.60
2018-08-10T23:17:58.525Z,82.40
2018-08-10T23:20:31.565Z,82.30
2018-08-10T23:23:05.565Z,82.30
2018-08-10T23:25:38.525Z,82.50
2018-08-10T23:28:11.572Z,82.70
2018-08-10T23:30:44.614Z,82.90
2018-08-10T23:33:17.626Z,82.90
2018-08-10T23:35:50.875Z,82.80
2018-08-10T23:38:23.900Z,83.10
2018-08-10T23:40:56.893Z,83.30
2018-08-10T23:43:29.987Z,83.10
2018-08-10T23:46:03.426Z,82.90
2018-08-10T23:48:38.541Z,82.80
2018-08-10T23:51:11.638Z,82.50
2018-08-10T23:53:44.694Z,82.50
2018-08-10T23:56:17.880Z,83.20
2018-08-10T23:58:51.056Z,83.40
